Time;durP1;ratioP1;P1;durP2;ratioP2;P2;SDS_P1;SDS_P2;PMS_P1;PMS_P2;Temp;Humidity;BMP_temperature;BMP_pressure;BME280_temperature;BME280_humidity;BME280_pressure;Samples;Min_cycle;Max_cycle;Signal;HPM_P1;HPM_P2
2023/05/13 00:01:30;;;;;;;13.33;5.57;;;12.70;99.90;;;;;;5045059;28;20297;-68
2023/05/13 00:03:57;;;;;;;7.80;5.47;;;12.70;99.90;;;;;;5045252;28;20057;-68
2023/05/13 00:06:23;;;;;;;9.77;5.30;;;12.80;99.90;;;;;;5055109;28;20298;-68
2023/05/13 00:08:49;;;;;;;8.57;4.67;;;12.70;99.90;;;;;;5045619;28;20041;-68
2023/05/13 00:11:14;;;;;;;7.80;5.47;;;12.70;99.90;;;;;;5055886;28;20620;-68
2023/05/13 00:13:40;;;;;;;7.80;5.47;;;12.60;99.90;;;;;;5045402;28;20119;-68
2023/05/13 00:16:05;;;;;;;8.47;5.40;;;12.60;99.90;;;;;;5045831;28;20041;-68
2023/05/13 00:18:31;;;;;;;11.67;5.10;;;12.60;99.90;;;;;;5046124;28;20244;-68
2023/05/13 00:20:57;;;;;;;8.47;5.37;;;12.60;99.90;;;;;;5046288;28;20309;-68
2023/05/13 00:23:22;;;;;;;8.23;4.90;;;12.60;99.90;;;;;;5048295;28;20627;-69
2023/05/13 00:25:48;;;;;;;9.57;5.10;;;12.60;99.90;;;;;;5048405;28;20059;-68
2023/05/13 00:28:16;;;;;;;7.25;5.38;;;12.50;99.90;;;;;;5045282;28;20426;-68
2023/05/13 00:30:44;;;;;;;6.80;5.00;;;12.50;99.90;;;;;;5046463;28;20051;-67
2023/05/13 00:33:10;;;;;;;7.80;5.70;;;12.50;99.90;;;;;;5059111;22;20076;-67
2023/05/13 00:35:35;;;;;;;9.18;5.03;;;12.50;99.90;;;;;;5036901;28;20036;-66
2023/05/13 00:38:03;;;;;;;9.93;5.43;;;12.50;99.90;;;;;;5039721;28;20042;-67
2023/05/13 00:40:32;;;;;;;8.75;5.40;;;12.50;99.90;;;;;;5042811;28;20438;-66
2023/05/13 00:42:58;;;;;;;11.10;5.60;;;12.40;99.90;;;;;;5030549;28;20135;-67
2023/05/13 00:45:23;;;;;;;8.50;5.20;;;12.40;99.90;;;;;;5014166;28;20119;-67
2023/05/13 00:47:50;;;;;;;10.53;5.37;;;12.40;99.90;;;;;;5026530;28;20052;-67
2023/05/13 00:50:15;;;;;;;10.57;6.10;;;12.30;99.90;;;;;;5017941;28;20866;-66
2023/05/13 00:52:41;;;;;;;10.20;5.93;;;12.30;99.90;;;;;;5017171;28;20089;-66
2023/05/13 00:55:08;;;;;;;9.98;5.32;;;12.30;99.90;;;;;;5009928;28;20133;-66
2023/05/13 00:57:36;;;;;;;11.57;5.72;;;12.30;99.90;;;;;;5024472;28;20055;-67
2023/05/13 01:00:04;;;;;;;10.75;5.68;;;12.20;99.90;;;;;;5016003;28;20407;-67
2023/05/13 01:02:38;;;;;;;9.93;5.40;;;12.20;99.90;;;;;;5010500;28;20399;-67
2023/05/13 01:05:25;;;;;;;14.75;6.07;;;12.20;99.90;;;;;;4990788;28;20136;-67
2023/05/13 01:08:13;;;;;;;11.43;6.22;;;12.20;99.90;;;;;;5013998;28;20132;-66
2023/05/13 01:11:16;;;;;;;9.23;5.93;;;12.20;99.90;;;;;;5012356;28;20491;-67
2023/05/13 01:13:48;;;;;;;9.73;6.07;;;12.20;99.90;;;;;;4981264;28;20056;-67
2023/05/13 01:16:49;;;;;;;11.48;6.28;;;12.20;99.90;;;;;;5010416;28;20050;-66
2023/05/13 01:19:41;;;;;;;9.73;6.05;;;12.20;99.90;;;;;;5026587;28;20045;-66
2023/05/13 01:22:07;;;;;;;8.88;5.72;;;12.10;99.90;;;;;;5015783;28;20450;-67
2023/05/13 01:24:33;;;;;;;10.80;6.38;;;12.10;99.90;;;;;;4996884;28;20046;-67
2023/05/13 01:27:07;;;;;;;9.48;5.97;;;12.10;99.90;;;;;;5007476;28;20097;-67
2023/05/13 01:29:36;;;;;;;13.13;6.30;;;12.10;99.90;;;;;;5028253;28;20037;-66
2023/05/13 01:32:02;;;;;;;11.27;6.60;;;12.10;99.90;;;;;;5014187;28;20129;-67
2023/05/13 01:34:29;;;;;;;9.07;6.47;;;12.10;99.90;;;;;;5019427;28;20042;-66
2023/05/13 01:36:56;;;;;;;11.18;6.30;;;12.10;99.90;;;;;;5023804;28;20045;-67
2023/05/13 01:39:22;;;;;;;;;;;12.10;99.90;;;;;;5018994;28;20037;-67
2023/05/13 01:41:48;;;;;;;9.93;6.05;;;12.00;99.90;;;;;;5021876;28;19921;-66
2023/05/13 01:44:14;;;;;;;12.80;7.00;;;12.00;99.90;;;;;;5016385;28;20386;-66
2023/05/13 01:46:42;;;;;;;11.82;6.90;;;12.00;99.90;;;;;;5007579;28;20385;-67
2023/05/13 01:49:09;;;;;;;11.18;6.60;;;12.00;99.90;;;;;;5018136;28;20045;-67
2023/05/13 01:51:35;;;;;;;;;;;11.90;99.90;;;;;;5020957;28;20061;-66
2023/05/13 01:54:01;;;;;;;9.38;5.60;;;12.00;99.90;;;;;;5028129;28;19921;-67
2023/05/13 01:56:26;;;;;;;7.88;6.10;;;12.00;99.90;;;;;;5021027;28;20510;-66
2023/05/13 01:58:52;;;;;;;16.13;6.40;;;11.90;99.90;;;;;;5025740;28;20075;-67
2023/05/13 02:01:18;;;;;;;14.00;6.70;;;11.90;99.90;;;;;;5015029;28;20297;-66
2023/05/13 02:03:44;;;;;;;9.80;6.43;;;11.90;99.90;;;;;;5010883;28;20488;-67
2023/05/13 02:06:09;;;;;;;13.27;6.35;;;11.90;99.90;;;;;;5018189;28;20128;-66
2023/05/13 02:08:35;;;;;;;11.57;6.10;;;11.90;99.90;;;;;;5018893;28;20518;-67
2023/05/13 02:11:01;;;;;;;9.23;6.47;;;11.90;99.90;;;;;;5011305;28;20036;-66
2023/05/13 02:13:26;;;;;;;9.40;6.13;;;11.90;99.90;;;;;;5020802;28;20277;-67
2023/05/13 02:15:53;;;;;;;11.10;6.23;;;11.90;99.90;;;;;;5016454;28;20048;-66
2023/05/13 02:18:18;;;;;;;10.25;6.35;;;11.90;99.90;;;;;;5011724;28;20837;-66
2023/05/13 02:20:45;;;;;;;10.48;6.35;;;11.80;99.90;;;;;;5013946;28;20292;-66
2023/05/13 02:23:13;;;;;;;10.45;6.43;;;11.80;99.90;;;;;;5012444;28;20037;-66
2023/05/13 02:25:40;;;;;;;10.65;6.03;;;11.90;99.90;;;;;;5019391;28;20057;-66
2023/05/13 02:28:06;;;;;;;12.35;6.32;;;11.80;99.90;;;;;;5028246;28;20041;-66
2023/05/13 02:30:32;;;;;;;12.95;5.80;;;11.80;99.90;;;;;;5017037;28;20280;-66
2023/05/13 02:32:59;;;;;;;10.68;6.25;;;11.80;99.90;;;;;;5026970;28;20041;-66
2023/05/13 02:35:28;;;;;;;10.38;5.68;;;11.80;99.90;;;;;;5018676;28;20033;-67
2023/05/13 02:37:57;;;;;;;10.95;6.18;;;11.80;99.90;;;;;;5010744;28;20049;-67
2023/05/13 02:40:23;;;;;;;7.75;5.55;;;11.80;99.90;;;;;;5012092;28;20042;-68
2023/05/13 02:42:48;;;;;;;10.65;6.40;;;11.80;99.90;;;;;;5019855;28;20045;-69
2023/05/13 02:45:14;;;;;;;9.50;5.57;;;11.80;99.90;;;;;;5010945;28;20470;-67
2023/05/13 02:47:40;;;;;;;10.38;5.50;;;11.80;99.90;;;;;;5016302;28;20049;-67
2023/05/13 02:50:08;;;;;;;11.20;5.73;;;11.70;99.90;;;;;;5015677;28;20041;-66
2023/05/13 02:52:34;;;;;;;8.63;5.95;;;11.80;99.90;;;;;;5022937;28;20037;-66
2023/05/13 02:55:01;;;;;;;9.95;5.63;;;11.70;99.90;;;;;;5020116;28;20297;-69
2023/05/13 02:57:27;;;;;;;10.05;6.70;;;11.80;99.90;;;;;;5017880;28;20049;-69
2023/05/13 02:59:52;;;;;;;11.98;5.80;;;11.80;99.90;;;;;;5011677;28;20034;-69
2023/05/13 03:02:18;;;;;;;12.67;6.33;;;11.70;99.90;;;;;;5020363;28;20632;-69
2023/05/13 03:04:44;;;;;;;9.97;5.97;;;11.70;99.90;;;;;;5013728;28;20306;-68
2023/05/13 03:07:10;;;;;;;12.77;5.57;;;11.70;99.90;;;;;;5018271;28;20526;-69
2023/05/13 03:09:38;;;;;;;11.43;5.60;;;11.80;99.90;;;;;;5024495;28;20034;-69
2023/05/13 03:12:05;;;;;;;12.18;5.82;;;11.70;99.90;;;;;;4998977;28;20768;-69
2023/05/13 03:14:33;;;;;;;9.00;5.63;;;11.70;99.90;;;;;;5009674;28;20041;-66
2023/05/13 03:16:59;;;;;;;9.18;5.53;;;11.70;99.90;;;;;;5018167;28;20060;-67
2023/05/13 03:19:28;;;;;;;14.10;6.25;;;11.60;99.90;;;;;;5025207;28;20411;-67
2023/05/13 03:21:53;;;;;;;9.18;6.53;;;11.70;99.90;;;;;;5025363;28;20120;-67
2023/05/13 03:24:19;;;;;;;11.48;5.45;;;11.70;99.90;;;;;;5018737;28;20495;-66
2023/05/13 03:26:48;;;;;;;10.48;5.53;;;11.70;99.90;;;;;;5017090;28;20124;-66
2023/05/13 03:29:14;;;;;;;9.35;5.65;;;11.70;99.90;;;;;;5015453;28;20482;-66
2023/05/13 03:31:40;;;;;;;10.63;6.03;;;11.70;99.90;;;;;;5019449;28;20037;-67
2023/05/13 03:34:05;;;;;;;10.15;6.15;;;11.60;99.90;;;;;;5020087;28;20147;-66
2023/05/13 03:36:31;;;;;;;10.53;5.27;;;11.60;99.90;;;;;;5026305;28;20045;-66
2023/05/13 03:38:57;;;;;;;13.70;6.30;;;11.60;99.90;;;;;;5027398;28;20466;-66
2023/05/13 03:41:22;;;;;;;9.90;5.63;;;11.60;99.90;;;;;;5021770;28;20124;-67
2023/05/13 03:43:48;;;;;;;12.33;5.77;;;11.60;99.90;;;;;;5031564;28;20077;-66
2023/05/13 03:46:14;;;;;;;17.03;5.17;;;11.60;99.90;;;;;;5019810;28;20278;-66
2023/05/13 03:48:39;;;;;;;8.13;4.73;;;11.70;99.90;;;;;;5013774;28;20038;-66
2023/05/13 03:51:05;;;;;;;9.02;5.50;;;11.60;99.90;;;;;;5025499;28;20037;-66
2023/05/13 03:53:31;;;;;;;12.17;5.53;;;11.60;99.90;;;;;;5019154;28;20058;-67
2023/05/13 03:55:57;;;;;;;12.52;5.10;;;11.60;99.90;;;;;;5017079;28;20325;-67
2023/05/13 03:58:22;;;;;;;10.60;5.40;;;11.60;99.90;;;;;;5021326;28;20048;-66
2023/05/13 04:00:48;;;;;;;9.33;5.27;;;11.60;99.90;;;;;;5016247;28;20287;-66
2023/05/13 04:03:15;;;;;;;7.47;5.53;;;11.60;99.90;;;;;;5021902;28;20080;-67
2023/05/13 04:05:41;;;;;;;11.88;5.22;;;11.50;99.90;;;;;;5022999;28;20265;-67
2023/05/13 04:08:06;;;;;;;9.23;5.70;;;11.60;99.90;;;;;;5022021;28;20396;-66
2023/05/13 04:10:32;;;;;;;13.43;5.50;;;11.60;99.90;;;;;;5021422;28;20320;-66
2023/05/13 04:12:58;;;;;;;8.30;5.10;;;11.60;99.90;;;;;;5013446;28;20126;-66
2023/05/13 04:15:23;;;;;;;13.13;5.53;;;11.50;99.90;;;;;;5014928;28;20491;-66
2023/05/13 04:17:50;;;;;;;9.40;4.83;;;11.60;99.90;;;;;;4998672;28;20045;-66
2023/05/13 04:20:15;;;;;;;7.30;4.93;;;11.50;99.90;;;;;;5008416;28;20041;-66
2023/05/13 04:22:41;;;;;;;9.47;5.43;;;11.60;99.90;;;;;;5021933;28;20165;-67
2023/05/13 04:25:07;;;;;;;9.30;5.63;;;11.60;99.90;;;;;;5012259;28;20042;-66
2023/05/13 04:27:32;;;;;;;10.10;5.80;;;11.60;99.90;;;;;;5020572;28;20492;-66
2023/05/13 04:29:58;;;;;;;12.47;5.40;;;11.70;99.90;;;;;;5002561;28;20057;-66
2023/05/13 04:32:24;;;;;;;8.63;6.03;;;11.60;99.90;;;;;;5010510;28;20491;-67
2023/05/13 04:34:51;;;;;;;9.30;5.38;;;11.60;99.90;;;;;;5027093;28;20036;-66
2023/05/13 04:37:17;;;;;;;9.25;5.13;;;11.60;99.90;;;;;;5018114;28;20045;-67
2023/05/13 04:39:47;;;;;;;11.57;5.45;;;11.60;99.90;;;;;;5029917;28;20041;-66
2023/05/13 04:42:13;;;;;;;9.18;5.22;;;11.60;99.90;;;;;;5014101;28;20492;-66
2023/05/13 04:44:39;;;;;;;9.35;5.30;;;11.60;99.90;;;;;;5020698;28;20052;-66
2023/05/13 04:47:05;;;;;;;8.48;5.40;;;11.70;99.90;;;;;;5013924;28;20041;-66
2023/05/13 04:49:31;;;;;;;9.82;6.38;;;11.70;99.90;;;;;;4996679;28;20367;-66
2023/05/13 04:51:56;;;;;;;8.47;5.33;;;11.70;99.90;;;;;;5022687;28;20034;-66
2023/05/13 04:54:22;;;;;;;9.23;5.32;;;11.80;99.90;;;;;;5015155;28;20040;-67
2023/05/13 04:56:48;;;;;;;11.15;6.05;;;11.80;99.90;;;;;;5016070;28;20383;-66
2023/05/13 04:59:14;;;;;;;10.95;5.30;;;11.80;99.90;;;;;;5018962;28;20046;-67
2023/05/13 05:01:39;;;;;;;10.43;5.95;;;11.90;99.90;;;;;;5012430;28;20125;-66
2023/05/13 05:04:05;;;;;;;9.33;5.13;;;11.90;99.90;;;;;;5019560;28;20384;-67
2023/05/13 05:06:31;;;;;;;9.30;5.40;;;12.00;99.90;;;;;;5019619;28;20041;-66
2023/05/13 05:08:57;;;;;;;12.43;5.80;;;12.00;99.90;;;;;;5022854;28;20128;-66
2023/05/13 05:11:23;;;;;;;9.68;5.28;;;12.10;99.90;;;;;;5015829;28;20086;-67
2023/05/13 05:13:49;;;;;;;8.32;5.68;;;12.10;99.90;;;;;;5023742;28;20418;-67
2023/05/13 05:16:15;;;;;;;10.02;5.78;;;12.20;99.90;;;;;;5015164;28;20226;-66
2023/05/13 05:18:42;;;;;;;9.73;6.00;;;12.20;99.90;;;;;;5014458;28;20422;-66
2023/05/13 05:21:08;;;;;;;10.25;5.72;;;12.20;99.90;;;;;;5023065;28;20042;-66
2023/05/13 05:23:34;;;;;;;7.80;5.00;;;12.20;99.90;;;;;;4997044;28;20053;-67
2023/05/13 05:26:00;;;;;;;10.52;5.32;;;12.30;99.90;;;;;;5018328;28;20045;-66
2023/05/13 05:28:26;;;;;;;8.57;5.35;;;12.30;99.90;;;;;;5016398;28;20567;-67
2023/05/13 05:30:54;;;;;;;12.13;5.22;;;12.40;99.90;;;;;;5008471;28;20528;-67
2023/05/13 05:33:20;;;;;;;9.13;4.90;;;12.40;99.90;;;;;;5025331;28;20041;-67
2023/05/13 05:35:46;;;;;;;9.88;5.47;;;12.40;99.90;;;;;;5013160;28;20073;-66
2023/05/13 05:38:11;;;;;;;9.23;5.43;;;12.50;99.90;;;;;;5015511;28;20079;-66
2023/05/13 05:40:40;;;;;;;6.03;4.70;;;12.60;99.90;;;;;;5013135;28;20045;-66
2023/05/13 05:43:07;;;;;;;8.80;4.57;;;12.60;99.90;;;;;;5017455;28;20486;-67
2023/05/13 05:45:37;;;;;;;9.20;4.97;;;12.60;99.90;;;;;;5009114;28;20327;-67
2023/05/13 05:48:03;;;;;;;7.50;5.07;;;12.70;99.90;;;;;;5015498;28;20187;-67
2023/05/13 05:50:28;;;;;;;10.13;5.40;;;12.70;99.90;;;;;;5012377;28;20038;-67
2023/05/13 05:52:54;;;;;;;8.73;5.00;;;12.80;99.90;;;;;;5016980;28;20091;-66
2023/05/13 05:55:20;;;;;;;11.23;4.93;;;12.80;99.90;;;;;;5011904;28;20490;-66
2023/05/13 05:57:46;;;;;;;11.10;5.22;;;12.90;99.90;;;;;;5022080;28;20045;-67
2023/05/13 06:00:12;;;;;;;8.90;5.18;;;13.00;99.90;;;;;;5014684;28;20042;-67
2023/05/13 06:02:38;;;;;;;9.23;5.55;;;13.00;99.90;;;;;;5014882;28;20054;-67
2023/05/13 06:05:04;;;;;;;7.40;4.53;;;13.00;99.90;;;;;;5014595;28;20041;-66
2023/05/13 06:07:30;;;;;;;7.93;4.53;;;13.10;99.90;;;;;;5016817;28;20491;-67
2023/05/13 06:09:56;;;;;;;7.18;5.10;;;13.20;99.90;;;;;;5016447;28;20065;-67
2023/05/13 06:12:21;;;;;;;12.00;5.10;;;13.20;99.90;;;;;;4999245;28;20048;-67
2023/05/13 06:14:48;;;;;;;12.23;5.07;;;13.30;99.90;;;;;;5010931;28;20389;-67
2023/05/13 06:17:13;;;;;;;12.85;4.75;;;13.30;99.90;;;;;;5010271;28;20132;-67
2023/05/13 06:19:43;;;;;;;8.68;5.28;;;13.50;99.90;;;;;;5006418;28;20096;-67
2023/05/13 06:22:09;;;;;;;10.23;5.25;;;13.50;99.90;;;;;;5015810;28;20077;-67
2023/05/13 06:24:35;;;;;;;7.40;4.95;;;13.60;99.90;;;;;;5012171;28;20060;-67
2023/05/13 06:27:01;;;;;;;8.63;5.78;;;13.60;99.90;;;;;;5020383;28;20042;-67
2023/05/13 06:29:27;;;;;;;8.80;4.65;;;13.60;99.90;;;;;;5018401;28;20241;-67
2023/05/13 06:31:53;;;;;;;9.10;4.80;;;13.70;99.90;;;;;;5012298;28;20517;-67
2023/05/13 06:34:19;;;;;;;10.05;4.70;;;13.80;99.90;;;;;;5004742;22;1179283;-66
2023/05/13 06:36:45;;;;;;;7.65;4.35;;;13.80;99.90;;;;;;5041421;28;20076;-66
2023/05/13 06:39:11;;;;;;;7.63;5.35;;;13.90;99.90;;;;;;5035724;28;20041;-67
2023/05/13 06:41:38;;;;;;;8.30;4.85;;;14.00;99.90;;;;;;5034875;28;20044;-66
2023/05/13 06:44:05;;;;;;;7.47;5.15;;;14.10;99.90;;;;;;5020338;28;20103;-66
2023/05/13 06:46:31;;;;;;;11.30;5.97;;;14.10;99.90;;;;;;5022745;28;20054;-66
2023/05/13 06:48:57;;;;;;;12.23;5.10;;;14.20;99.90;;;;;;5016685;28;20049;-66
2023/05/13 06:51:25;;;;;;;6.80;4.82;;;14.30;99.90;;;;;;5021357;28;20149;-66
2023/05/13 06:53:51;;;;;;;9.40;5.53;;;14.40;99.90;;;;;;5017988;28;20056;-66
2023/05/13 06:56:17;;;;;;;8.02;4.97;;;14.40;99.90;;;;;;5016618;28;20033;-66
2023/05/13 06:58:42;;;;;;;10.90;4.37;;;14.50;99.90;;;;;;5018329;28;20506;-66
2023/05/13 07:01:08;;;;;;;10.50;4.75;;;14.60;99.90;;;;;;5020641;28;20044;-66
2023/05/13 07:03:34;;;;;;;10.40;5.03;;;14.60;99.90;;;;;;5019223;28;20519;-66
2023/05/13 07:05:59;;;;;;;8.97;5.37;;;14.70;99.90;;;;;;5018563;28;20283;-66
2023/05/13 07:08:25;;;;;;;7.77;4.53;;;14.80;99.90;;;;;;5021504;28;20321;-66
2023/05/13 07:10:50;;;;;;;6.93;4.63;;;14.80;99.90;;;;;;5016739;28;20029;-66
2023/05/13 07:13:18;;;;;;;8.03;4.43;;;14.90;99.90;;;;;;5020393;28;20935;-66
2023/05/13 07:15:44;;;;;;;8.05;4.50;;;15.00;99.90;;;;;;5019935;28;20286;-69
2023/05/13 07:18:10;;;;;;;8.05;4.20;;;15.00;99.90;;;;;;5024092;28;20099;-68
2023/05/13 07:20:36;;;;;;;7.60;4.65;;;15.20;99.90;;;;;;5021572;28;20368;-69
2023/05/13 07:23:01;;;;;;;8.65;4.30;;;15.30;99.90;;;;;;5013675;28;20057;-69
2023/05/13 07:25:27;;;;;;;7.97;4.40;;;15.40;99.90;;;;;;5019731;28;20234;-68
2023/05/13 07:27:53;;;;;;;9.02;4.47;;;15.40;99.90;;;;;;5019859;28;20045;-68
2023/05/13 07:30:18;;;;;;;6.55;3.85;;;15.50;99.90;;;;;;5009656;28;20038;-68
2023/05/13 07:32:47;;;;;;;9.32;4.30;;;15.60;99.90;;;;;;5012438;28;20077;-69
2023/05/13 07:35:16;;;;;;;6.15;4.28;;;15.70;99.90;;;;;;5020003;28;20083;-69
2023/05/13 07:37:45;;;;;;;8.93;4.07;;;15.80;99.90;;;;;;5015724;28;20430;-69
2023/05/13 07:40:14;;;;;;;12.52;4.25;;;15.90;99.90;;;;;;5012894;28;20053;-68
2023/05/13 07:42:39;;;;;;;10.48;4.25;;;16.00;99.90;;;;;;5022574;28;20055;-69
2023/05/13 07:45:08;;;;;;;7.57;4.07;;;16.00;99.90;;;;;;5018276;28;20053;-68
2023/05/13 07:47:34;;;;;;;8.20;3.58;;;16.10;99.90;;;;;;5018113;28;20697;-69
2023/05/13 07:50:00;;;;;;;6.38;4.40;;;16.20;99.90;;;;;;5021814;28;20233;-69
2023/05/13 07:52:26;;;;;;;8.60;4.15;;;16.20;99.90;;;;;;5020582;28;20041;-69
2023/05/13 07:54:52;;;;;;;12.77;4.10;;;16.30;99.90;;;;;;5018889;28;20349;-69
2023/05/13 07:57:17;;;;;;;6.93;4.03;;;16.40;99.90;;;;;;5014999;28;20076;-67
2023/05/13 07:59:43;;;;;;;6.68;3.67;;;16.40;99.90;;;;;;5019956;28;20033;-66
2023/05/13 08:02:09;;;;;;;5.25;3.72;;;16.50;99.90;;;;;;5020130;28;20045;-66
2023/05/13 08:04:35;;;;;;;8.07;4.38;;;16.60;99.90;;;;;;5022743;28;20507;-66
2023/05/13 08:07:01;;;;;;;8.77;3.88;;;16.70;99.90;;;;;;5024310;28;20046;-66
2023/05/13 08:09:26;;;;;;;7.18;4.05;;;16.80;99.90;;;;;;5016690;28;20052;-66
2023/05/13 08:11:53;;;;;;;6.32;4.35;;;16.90;99.90;;;;;;5018912;28;20095;-66
2023/05/13 08:14:19;;;;;;;;;;;17.00;99.90;;;;;;5003001;28;20503;-67
2023/05/13 08:16:44;;;;;;;5.07;3.53;;;17.10;99.90;;;;;;5019509;28;19925;-67
2023/05/13 08:19:12;;;;;;;6.57;3.80;;;17.20;99.90;;;;;;5015889;28;20128;-66
2023/05/13 08:21:41;;;;;;;7.25;4.13;;;17.30;99.90;;;;;;5015904;28;20554;-66
2023/05/13 08:24:07;;;;;;;9.10;4.10;;;17.30;99.90;;;;;;5015808;28;20048;-66
2023/05/13 08:26:33;;;;;;;10.07;3.63;;;17.40;99.90;;;;;;5024689;28;20038;-66
2023/05/13 08:28:59;;;;;;;8.25;4.00;;;17.50;99.90;;;;;;5020989;28;20037;-66
2023/05/13 08:31:25;;;;;;;9.25;4.57;;;17.60;99.90;;;;;;5025587;28;21653;-66
2023/05/13 08:33:54;;;;;;;4.78;3.30;;;17.60;99.90;;;;;;5025717;28;20049;-66
2023/05/13 08:36:24;;;;;;;9.00;4.15;;;17.70;99.90;;;;;;5019091;28;20045;-66
2023/05/13 08:38:50;;;;;;;7.47;3.72;;;17.80;99.90;;;;;;5023566;28;20053;-68
2023/05/13 08:41:17;;;;;;;6.40;3.60;;;17.90;99.90;;;;;;5018119;28;20467;-67
2023/05/13 08:43:42;;;;;;;;;;;17.90;99.90;;;;;;5022590;28;20052;-67
2023/05/13 08:46:10;;;;;;;8.00;3.38;;;18.00;99.90;;;;;;5025281;28;19917;-74
2023/05/13 08:48:37;;;;;;;7.70;3.65;;;18.10;99.90;;;;;;5015976;28;20733;-67
2023/05/13 08:51:04;;;;;;;10.45;4.25;;;18.10;99.90;;;;;;5029476;28;20375;-67
2023/05/13 08:53:32;;;;;;;7.13;3.67;;;18.20;99.90;;;;;;5031431;28;20594;-66
2023/05/13 08:55:59;;;;;;;7.00;3.53;;;18.30;99.90;;;;;;5020263;28;20660;-67
2023/05/13 08:58:24;;;;;;;8.57;3.95;;;18.40;99.90;;;;;;5019810;28;20322;-66
2023/05/13 09:00:52;;;;;;;7.63;3.95;;;18.50;99.90;;;;;;5029984;28;20063;-66
2023/05/13 09:03:20;;;;;;;9.15;3.72;;;18.50;99.90;;;;;;5017467;28;20042;-67
2023/05/13 09:05:46;;;;;;;5.22;3.95;;;18.70;99.90;;;;;;5018814;28;20049;-67
2023/05/13 09:08:12;;;;;;;8.15;3.53;;;18.80;99.90;;;;;;5024907;28;20456;-67
2023/05/13 09:10:37;;;;;;;7.00;3.45;;;18.90;99.90;;;;;;5012341;28;20088;-67
2023/05/13 09:13:04;;;;;;;5.88;3.50;;;18.90;99.90;;;;;;5020452;28;20081;-67
2023/05/13 09:15:30;;;;;;;11.18;3.65;;;19.00;99.90;;;;;;5022134;28;20053;-67
2023/05/13 09:18:04;;;;;;;7.88;3.53;;;19.10;99.90;;;;;;5008223;28;20069;-67
2023/05/13 09:20:31;;;;;;;5.47;3.90;;;19.20;99.90;;;;;;5020483;28;20041;-67
2023/05/13 09:23:08;;;;;;;7.68;4.32;;;19.30;99.90;;;;;;5018031;28;20076;-67
2023/05/13 09:25:35;;;;;;;4.90;2.70;;;19.40;99.90;;;;;;5023659;28;20110;-67
2023/05/13 09:28:08;;;;;;;8.57;3.88;;;19.40;99.90;;;;;;5024836;28;20037;-67
2023/05/13 09:30:41;;;;;;;4.95;2.90;;;19.50;99.90;;;;;;5019766;28;20408;-68
2023/05/13 09:33:15;;;;;;;5.97;3.72;;;19.60;99.90;;;;;;5022392;28;20033;-67
2023/05/13 09:35:51;;;;;;;7.20;3.55;;;19.70;99.90;;;;;;5021156;28;20110;-67
2023/05/13 09:38:31;;;;;;;10.55;3.97;;;19.70;99.90;;;;;;5031185;28;20053;-67
2023/05/13 09:40:59;;;;;;;7.57;3.80;;;19.80;99.90;;;;;;5024815;28;20120;-67
2023/05/13 09:43:37;;;;;;;9.23;4.13;;;19.90;99.90;;;;;;5023328;28;20065;-67
2023/05/13 09:46:04;;;;;;;7.65;4.10;;;20.00;99.90;;;;;;5023897;28;20044;-67
2023/05/13 09:48:32;;;;;;;6.47;3.63;;;20.00;99.90;;;;;;5025244;28;20463;-67
2023/05/13 09:50:58;;;;;;;6.78;3.88;;;20.00;99.90;;;;;;5023588;28;20071;-67
2023/05/13 09:53:24;;;;;;;6.60;3.67;;;20.10;99.90;;;;;;5018378;28;20037;-67
2023/05/13 09:55:53;;;;;;;7.53;3.80;;;20.10;99.90;;;;;;5024811;28;20041;-69
2023/05/13 09:58:20;;;;;;;4.68;3.25;;;20.20;99.90;;;;;;5022093;28;20545;-68
2023/05/13 10:00:47;;;;;;;10.18;3.78;;;20.20;99.90;;;;;;5018168;28;20048;-68
2023/05/13 10:03:13;;;;;;;9.57;3.92;;;20.10;99.90;;;;;;5016439;28;20121;-68
2023/05/13 10:05:40;;;;;;;5.38;3.28;;;20.10;99.90;;;;;;5017149;28;20068;-68
2023/05/13 10:08:09;;;;;;;8.27;3.80;;;20.10;99.90;;;;;;5019041;28;20068;-68
2023/05/13 10:10:35;;;;;;;5.53;3.42;;;20.10;99.90;;;;;;5011294;28;20041;-68
2023/05/13 10:13:15;;;;;;;8.93;3.58;;;20.10;99.90;;;;;;5019658;28;20053;-68
2023/05/13 10:16:01;;;;;;;6.32;3.45;;;20.10;99.90;;;;;;5012900;28;20136;-68
2023/05/13 10:18:27;;;;;;;7.35;3.63;;;20.20;99.90;;;;;;5020685;28;20049;-68
2023/05/13 10:20:53;;;;;;;5.65;3.20;;;20.20;99.90;;;;;;5010954;28;20508;-68
2023/05/13 10:23:28;;;;;;;6.18;3.30;;;20.30;99.90;;;;;;5020597;28;20069;-69
2023/05/13 10:25:55;;;;;;;6.28;3.50;;;20.30;99.90;;;;;;5010324;28;20207;-69
2023/05/13 10:28:21;;;;;;;7.75;3.47;;;20.40;99.90;;;;;;5021951;28;20080;-70
2023/05/13 10:30:52;;;;;;;;;;;20.40;99.90;;;;;;5013153;28;20037;-69
2023/05/13 10:33:23;;;;;;;6.50;2.75;;;20.50;99.90;;;;;;5015446;28;19924;-69
2023/05/13 10:36:18;;;;;;;8.25;3.88;;;20.50;99.90;;;;;;5011518;28;20034;-69
2023/05/13 10:39:06;;;;;;;8.57;5.07;;;20.60;99.90;;;;;;4985976;28;20144;-69
2023/05/13 10:41:58;;;;;;;7.20;4.60;;;20.70;99.90;;;;;;5009046;28;20037;-69
2023/05/13 10:44:24;;;;;;;8.38;4.55;;;20.70;99.90;;;;;;5014625;28;20041;-68
2023/05/13 10:46:50;;;;;;;;;;;20.80;99.90;;;;;;5016120;28;20125;-69
2023/05/13 10:49:16;;;;;;;8.60;3.85;;;20.80;99.90;;;;;;5012162;28;20405;-69
2023/05/13 10:51:46;;;;;;;6.95;4.60;;;20.80;99.90;;;;;;5010049;28;20411;-69
2023/05/13 10:54:19;;;;;;;7.32;4.25;;;20.90;99.90;;;;;;5008099;28;20084;-70
2023/05/13 10:56:46;;;;;;;8.68;4.13;;;20.80;99.90;;;;;;5009450;28;20114;-69
2023/05/13 10:59:11;;;;;;;6.85;4.22;;;20.90;99.90;;;;;;5014302;28;20597;-69
2023/05/13 11:01:44;;;;;;;8.45;4.47;;;20.90;99.90;;;;;;5013125;28;20169;-69
2023/05/13 11:04:15;;;;;;;5.82;3.50;;;20.90;99.90;;;;;;5014990;28;20061;-70
2023/05/13 11:06:43;;;;;;;6.75;4.22;;;21.10;99.90;;;;;;5008010;28;20045;-69
2023/05/13 11:09:12;;;;;;;7.57;4.50;;;21.20;99.90;;;;;;5019639;28;20033;-70
2023/05/13 11:11:39;;;;;;;7.68;4.28;;;21.20;99.90;;;;;;5005441;28;20041;-70
2023/05/13 11:14:17;;;;;;;7.68;4.30;;;21.20;99.90;;;;;;5010454;28;20038;-70
2023/05/13 11:17:03;;;;;;;8.60;5.00;;;21.30;99.90;;;;;;5015876;28;20060;-69
2023/05/13 11:19:36;;;;;;;6.13;4.38;;;21.30;99.90;;;;;;5015674;28;20064;-70
2023/05/13 11:22:15;;;;;;;6.70;4.03;;;21.30;99.90;;;;;;5009894;28;20549;-69
2023/05/13 11:24:44;;;;;;;7.43;4.50;;;21.40;99.90;;;;;;5013960;28;20038;-69
2023/05/13 11:27:20;;;;;;;12.77;4.65;;;21.30;99.90;;;;;;5015306;28;20563;-70
2023/05/13 11:29:50;;;;;;;7.88;4.45;;;21.40;99.90;;;;;;5017496;28;20041;-69
2023/05/13 11:32:47;;;;;;;8.95;4.68;;;21.40;99.90;;;;;;4995193;28;20123;-69
2023/05/13 11:35:17;;;;;;;;;;;21.50;99.90;;;;;;5026983;28;20054;-69
2023/05/13 11:37:43;;;;;;;6.90;4.15;;;21.40;99.90;;;;;;5019811;28;19917;-69
2023/05/13 11:40:10;;;;;;;;;;;21.50;99.90;;;;;;5027631;28;20044;-71
2023/05/13 11:42:38;;;;;;;10.20;5.15;;;21.50;99.90;;;;;;5020333;28;20294;-70
2023/05/13 11:45:04;;;;;;;7.43;5.13;;;21.60;99.90;;;;;;5012739;28;20421;-70
2023/05/13 11:47:32;;;;;;;8.05;5.15;;;21.70;99.90;;;;;;5022805;28;20037;-70
2023/05/13 11:49:58;;;;;;;7.80;4.65;;;21.70;99.90;;;;;;5018109;28;20077;-70
2023/05/13 11:52:28;;;;;;;9.00;4.97;;;21.70;99.90;;;;;;5020422;28;20033;-70
2023/05/13 11:54:56;;;;;;;6.32;4.55;;;21.70;99.90;;;;;;5022121;28;20504;-70
2023/05/13 11:57:27;;;;;;;6.55;4.18;;;21.70;99.90;;;;;;5021556;28;20395;-70
2023/05/13 11:59:58;;;;;;;8.88;4.00;;;21.80;99.90;;;;;;5021279;28;20128;-70
2023/05/13 12:02:32;;;;;;;7.13;3.92;;;21.90;99.90;;;;;;5017058;28;20041;-70
2023/05/13 12:05:05;;;;;;;8.88;4.38;;;21.90;99.90;;;;;;5017770;28;20415;-70
2023/05/13 12:07:32;;;;;;;6.80;3.95;;;22.00;99.90;;;;;;5011778;28;20159;-70
2023/05/13 12:10:00;;;;;;;6.60;4.60;;;22.00;99.90;;;;;;5019556;28;20037;-70
2023/05/13 12:12:28;;;;;;;8.35;4.68;;;22.00;99.90;;;;;;5020849;28;20038;-70
2023/05/13 12:14:55;;;;;;;8.82;4.03;;;22.10;99.90;;;;;;5029135;28;20052;-70
2023/05/13 12:17:21;;;;;;;9.82;4.35;;;22.10;99.90;;;;;;5018610;28;20240;-70
2023/05/13 12:20:05;;;;;;;;;;;22.20;99.90;;;;;;5022682;28;20049;-70
2023/05/13 12:22:35;;;;;;;7.75;4.30;;;22.30;99.90;;;;;;5020531;28;19917;-70
2023/05/13 12:25:35;;;;;;;6.93;4.10;;;22.20;99.90;;;;;;5016360;28;20045;-70
2023/05/13 12:28:18;;;;;;;5.93;3.55;;;22.30;99.90;;;;;;5014655;28;20046;-74
2023/05/13 12:31:05;;;;;;;6.00;3.70;;;22.40;99.90;;;;;;5012519;28;20103;-71
2023/05/13 12:36:24;;;;;;;10.60;4.00;;;22.50;99.90;;;;;;5001766;28;20273;-71
2023/05/13 12:39:10;;;;;;;8.38;4.00;;;22.60;99.90;;;;;;4993244;28;20136;-71
2023/05/13 12:41:41;;;;;;;7.88;4.40;;;22.60;99.90;;;;;;5002744;28;20052;-71
2023/05/13 12:44:13;;;;;;;6.55;3.40;;;22.70;99.90;;;;;;4995561;28;20050;-71
2023/05/13 12:46:59;;;;;;;7.32;3.70;;;22.70;99.90;;;;;;4995128;28;20056;-71
2023/05/13 12:49:25;;;;;;;7.90;4.68;;;22.80;99.90;;;;;;4998812;28;20152;-71
2023/05/13 12:51:50;;;;;;;;;;;22.80;99.90;;;;;;4993329;28;20065;-71
2023/05/13 12:54:17;;;;;;;10.10;4.43;;;22.90;99.90;;;;;;4995999;28;19992;-71